LICCLGKR

Guest
Details From LICC - Catania Fontanarossa
To LGKR - IOANNIS KAPODISTRIAS INTL
Flight Number -
Tags generated
Created
Modified
Stats Distance 272 nm / 503 km
Max Altitude 29,200 ft / 8,900 m
Waypoints 6
Social Downloads 0
Likes 0
Share VATSIM

Download

Looking for another format? Having issues loading an existing format? Contact us
Advertisement - Login to hide

Notes

Basic altitude profile: - Ascent Rate: 2500ft/min - Ascent Speed: 250kts - Cruise Altitude: 35000ft - Cruise Speed: 420kts - Descent Rate: 1500ft/min - Descent Speed: 250kts Options: - Use NATs: yes - Use PACOTS: yes - Use low airways: yes - Use high airways: yes

Route

LICC RCA L137 CDC UL869 GEMVI LGKR

ID Type Via Altitude Latitude Longitude Leg Dist Tot Dist Heading (true) Name
O LICC APT - 0 ft / 0 m 37.46678˚ 15.06640˚ - 0 nm - Catania Fontanarossa
RCA VOR - 15,300 ft / 4,663 m 38.07610˚ 15.64527˚ 45 nm 45 nm 37° / 37° REGGIO CALABRIA VOR-DME
CDC VOR L137 (AWY-LO) 19,500 ft / 5,944 m 38.75583˚ 16.36917˚ 53 nm 98 nm 40° / 40° CARAFFA DI CATANZARO VORTAC
CRN VOR UL869 (AWY-HI) 29,200 ft / 8,900 m 38.99611˚ 17.08305˚ 36 nm 135 nm 66° / 67° CROTONE VOR-DME
GEMVI FIX UL869 (AWY-HI) 21,800 ft / 6,645 m 39.11278˚ 17.80528˚ 34 nm 169 nm 78° / 78° -
O LGKR APT - 0 ft / 0 m 39.60178˚ 19.91191˚ 102 nm 271 nm 73° / 74° IOANNIS KAPODISTRIAS INTL

Altitude Profile

Advertisement - Login to hide

Weather


0- 5 10 15 20 25 30 35+ Temperature / ° C

Clouds and Precipitation
Forecast for 2017-12-11 00:00 UTC. Updated an hour ago

Ground ~20,000 ft ~40,000 ft Winds

LICC

Details ICAO LICC (CTA)
Name Catania Fontanarossa
Region Italy
Timezone Europe/Rome (UTC+1.0)
Stats Elevation 39 ft / 12 m (AMSL)
Location 37.466779° 15.066401°
Runways 1
Magnetic Variation 3.214° E

METAR

LICC 102350Z 22007KT 9999 SCT045 05/03 Q1020

Decode

TAF

TAF LICC 102300Z 1100/1124 25015KT 9999 SCT030

Decode

Departure Runways

ID Width Length Bearing (true) Bearing (mag) Surface Threshold Offset Overrun Length
08 148 ft / 45 m 7,985 ft / 2,434 m 83.94° 80.73° Asphalt 312 ft / 95 m 0 ft / 0 m
26 148 ft / 45 m 7,985 ft / 2,434 m 263.95° 260.74° Asphalt 279 ft / 85 m 0 ft / 0 m

LGKR

Details ICAO LGKR (CFU)
Name IOANNIS KAPODISTRIAS INTL
Region Greece
Timezone Europe/Athens (UTC+2.0)
Stats Elevation 6 ft / 2 m (AMSL)
Location 39.601779° 19.911908°
Runways 1
Magnetic Variation 4.097° E

METAR

LGKR 102350Z 30003KT 9999 BKN030 04/03 Q1021 NOSIG

Decode

TAF

TAF LGKR 102300Z 1100/1124 14015KT 9999 SCT025 BKN080 PROB40 TEMPO 1110/1124 5000 RA BKN020 OVC080

Decode

Destination Runways

ID Width Length Bearing (true) Bearing (mag) Surface Threshold Offset Overrun Length
17 148 ft / 45 m 7,815 ft / 2,382 m 168.81° 164.71° Asphalt 1,348 ft / 411 m 0 ft / 0 m
35 148 ft / 45 m 7,815 ft / 2,382 m 348.81° 344.71° Asphalt 213 ft / 65 m 0 ft / 0 m

Popular Alternatives